sensor_id;sensor_type;location;lat;lon;timestamp;pressure;altitude;pressure_sealevel;temperature;humidity
596;BME280;19946;49.306;11.350;2022-08-21T00:01:42;96439.09;;;15.32;100.00
596;BME280;19946;49.306;11.350;2022-08-21T00:04:43;96431.28;;;15.24;100.00
596;BME280;19946;49.306;11.350;2022-08-21T00:07:43;96428.31;;;15.19;100.00
596;BME280;19946;49.306;11.350;2022-08-21T00:10:44;96430.91;;;15.11;100.00
596;BME280;19946;49.306;11.350;2022-08-21T00:13:45;96427.94;;;15.06;100.00
596;BME280;19946;49.306;11.350;2022-08-21T00:16:45;96418.53;;;15.13;100.00
596;BME280;19946;49.306;11.350;2022-08-21T00:19:46;96426.06;;;15.24;100.00
596;BME280;19946;49.306;11.350;2022-08-21T00:22:47;96419.19;;;15.23;100.00
596;BME280;19946;49.306;11.350;2022-08-21T00:25:48;96416.03;;;15.04;100.00
596;BME280;19946;49.306;11.350;2022-08-21T00:28:48;96424.34;;;15.07;100.00
596;BME280;19946;49.306;11.350;2022-08-21T00:31:50;96416.84;;;15.04;100.00
596;BME280;19946;49.306;11.350;2022-08-21T00:34:50;96418.63;;;15.04;100.00
596;BME280;19946;49.306;11.350;2022-08-21T00:37:51;96404.56;;;14.88;100.00
596;BME280;19946;49.306;11.350;2022-08-21T00:40:55;96418.31;;;14.98;100.00
596;BME280;19946;49.306;11.350;2022-08-21T00:43:56;96413.25;;;14.97;100.00
596;BME280;19946;49.306;11.350;2022-08-21T00:46:57;96414.69;;;14.91;100.00
596;BME280;19946;49.306;11.350;2022-08-21T00:49:58;96401.81;;;14.90;100.00
596;BME280;19946;49.306;11.350;2022-08-21T00:53:00;96399.50;;;14.87;100.00
596;BME280;19946;49.306;11.350;2022-08-21T00:56:03;96400.16;;;14.81;100.00
596;BME280;19946;49.306;11.350;2022-08-21T00:59:05;96405.38;;;14.81;100.00
596;BME280;19946;49.306;11.350;2022-08-21T01:02:07;96411.03;;;14.76;100.00
596;BME280;19946;49.306;11.350;2022-08-21T01:05:08;96405.94;;;14.67;100.00
596;BME280;19946;49.306;11.350;2022-08-21T01:08:09;96398.25;;;14.57;100.00
596;BME280;19946;49.306;11.350;2022-08-21T01:11:10;96401.28;;;14.44;100.00
596;BME280;19946;49.306;11.350;2022-08-21T01:14:11;96404.03;;;14.43;100.00
596;BME280;19946;49.306;11.350;2022-08-21T01:17:14;96403.66;;;14.38;100.00
596;BME280;19946;49.306;11.350;2022-08-21T01:20:15;96404.25;;;14.32;100.00
596;BME280;19946;49.306;11.350;2022-08-21T01:23:16;96402.78;;;14.29;100.00
596;BME280;19946;49.306;11.350;2022-08-21T01:26:19;96404.75;;;14.27;100.00
596;BME280;19946;49.306;11.350;2022-08-21T01:29:32;96401.47;;;14.25;100.00
596;BME280;19946;49.306;11.350;2022-08-21T01:32:34;96400.03;;;14.31;100.00
596;BME280;19946;49.306;11.350;2022-08-21T01:35:34;96405.63;;;14.18;100.00
596;BME280;19946;49.306;11.350;2022-08-21T01:38:35;96409.53;;;13.96;100.00
596;BME280;19946;49.306;11.350;2022-08-21T01:41:35;96404.53;;;13.95;100.00
596;BME280;19946;49.306;11.350;2022-08-21T01:44:36;96404.88;;;14.00;100.00
596;BME280;19946;49.306;11.350;2022-08-21T01:47:37;96404.00;;;13.91;100.00
596;BME280;19946;49.306;11.350;2022-08-21T01:50:38;96406.75;;;13.89;100.00
596;BME280;19946;49.306;11.350;2022-08-21T01:53:38;96392.97;;;13.97;100.00
596;BME280;19946;49.306;11.350;2022-08-21T01:56:42;96393.09;;;13.96;100.00
596;BME280;19946;49.306;11.350;2022-08-21T01:59:43;96397.81;;;13.92;100.00
596;BME280;19946;49.306;11.350;2022-08-21T02:02:44;96396.44;;;13.80;100.00
596;BME280;19946;49.306;11.350;2022-08-21T02:05:44;96403.13;;;13.82;100.00
596;BME280;19946;49.306;11.350;2022-08-21T02:08:46;96398.44;;;13.68;100.00
596;BME280;19946;49.306;11.350;2022-08-21T02:11:46;96395.22;;;13.74;100.00
596;BME280;19946;49.306;11.350;2022-08-21T02:14:47;96392.03;;;13.80;100.00
596;BME280;19946;49.306;11.350;2022-08-21T02:17:52;96393.44;;;13.75;100.00
596;BME280;19946;49.306;11.350;2022-08-21T02:20:53;96394.50;;;13.46;100.00
596;BME280;19946;49.306;11.350;2022-08-21T02:23:54;96394.56;;;13.55;100.00
596;BME280;19946;49.306;11.350;2022-08-21T02:26:54;96396.75;;;13.59;100.00
596;BME280;19946;49.306;11.350;2022-08-21T02:29:56;96396.06;;;13.57;100.00
596;BME280;19946;49.306;11.350;2022-08-21T02:32:57;96386.34;;;13.59;100.00
596;BME280;19946;49.306;11.350;2022-08-21T02:35:58;96392.50;;;13.58;100.00
596;BME280;19946;49.306;11.350;2022-08-21T02:38:58;96383.34;;;13.54;100.00
596;BME280;19946;49.306;11.350;2022-08-21T02:41:59;96384.41;;;13.61;100.00
596;BME280;19946;49.306;11.350;2022-08-21T02:44:59;96395.41;;;13.55;100.00
596;BME280;19946;49.306;11.350;2022-08-21T02:48:05;96397.19;;;13.55;100.00
596;BME280;19946;49.306;11.350;2022-08-21T02:51:16;96387.97;;;13.60;100.00
596;BME280;19946;49.306;11.350;2022-08-21T02:54:17;96390.88;;;13.57;100.00
596;BME280;19946;49.306;11.350;2022-08-21T02:57:17;96398.25;;;13.62;100.00
596;BME280;19946;49.306;11.350;2022-08-21T03:00:20;96393.25;;;13.68;100.00
596;BME280;19946;49.306;11.350;2022-08-21T03:03:21;96390.94;;;13.83;100.00
596;BME280;19946;49.306;11.350;2022-08-21T03:06:22;96388.22;;;13.93;100.00
596;BME280;19946;49.306;11.350;2022-08-21T03:09:24;96394.44;;;14.00;100.00
596;BME280;19946;49.306;11.350;2022-08-21T03:12:24;96387.16;;;14.03;100.00
596;BME280;19946;49.306;11.350;2022-08-21T03:15:25;96375.94;;;14.03;100.00
596;BME280;19946;49.306;11.350;2022-08-21T03:18:26;96384.19;;;14.24;100.00
596;BME280;19946;49.306;11.350;2022-08-21T03:21:26;96386.53;;;14.35;100.00
596;BME280;19946;49.306;11.350;2022-08-21T03:24:28;96396.88;;;14.45;100.00
596;BME280;19946;49.306;11.350;2022-08-21T03:27:29;96390.75;;;14.54;100.00
596;BME280;19946;49.306;11.350;2022-08-21T03:30:31;96391.09;;;14.59;100.00
596;BME280;19946;49.306;11.350;2022-08-21T03:33:31;96388.81;;;14.56;100.00
596;BME280;19946;49.306;11.350;2022-08-21T03:36:32;96385.91;;;14.67;100.00
596;BME280;19946;49.306;11.350;2022-08-21T03:39:33;96386.22;;;14.64;100.00
596;BME280;19946;49.306;11.350;2022-08-21T03:42:34;96389.34;;;14.68;100.00
596;BME280;19946;49.306;11.350;2022-08-21T03:45:35;96386.44;;;14.71;100.00
596;BME280;19946;49.306;11.350;2022-08-21T03:48:37;96392.13;;;14.74;100.00
596;BME280;19946;49.306;11.350;2022-08-21T03:51:37;96392.00;;;14.84;100.00
596;BME280;19946;49.306;11.350;2022-08-21T03:54:37;96390.88;;;14.86;100.00
596;BME280;19946;49.306;11.350;2022-08-21T03:57:40;96394.00;;;14.90;100.00
596;BME280;19946;49.306;11.350;2022-08-21T04:00:40;96401.56;;;14.67;100.00
596;BME280;19946;49.306;11.350;2022-08-21T04:03:40;96407.91;;;14.73;100.00
596;BME280;19946;49.306;11.350;2022-08-21T04:06:41;96406.66;;;14.77;100.00
596;BME280;19946;49.306;11.350;2022-08-21T04:09:41;96405.03;;;14.84;100.00
596;BME280;19946;49.306;11.350;2022-08-21T04:12:41;96412.41;;;14.88;100.00
596;BME280;19946;49.306;11.350;2022-08-21T04:15:42;96403.78;;;14.96;100.00
596;BME280;19946;49.306;11.350;2022-08-21T04:18:42;96410.78;;;14.95;100.00
596;BME280;19946;49.306;11.350;2022-08-21T04:21:43;96405.53;;;14.87;100.00
596;BME280;19946;49.306;11.350;2022-08-21T04:24:43;96411.72;;;14.78;100.00
596;BME280;19946;49.306;11.350;2022-08-21T04:27:44;96415.13;;;14.79;100.00
596;BME280;19946;49.306;11.350;2022-08-21T04:30:46;96417.78;;;14.61;100.00
596;BME280;19946;49.306;11.350;2022-08-21T04:33:46;96422.75;;;14.72;100.00
596;BME280;19946;49.306;11.350;2022-08-21T04:36:47;96426.84;;;14.75;100.00
596;BME280;19946;49.306;11.350;2022-08-21T04:39:47;96423.22;;;14.68;100.00
596;BME280;19946;49.306;11.350;2022-08-21T04:42:52;96438.72;;;14.69;100.00
596;BME280;19946;49.306;11.350;2022-08-21T04:45:52;96438.22;;;14.74;100.00
596;BME280;19946;49.306;11.350;2022-08-21T04:48:53;96438.88;;;14.68;100.00
596;BME280;19946;49.306;11.350;2022-08-21T04:51:53;96427.25;;;14.62;100.00
596;BME280;19946;49.306;11.350;2022-08-21T04:54:54;96433.97;;;14.73;100.00
596;BME280;19946;49.306;11.350;2022-08-21T04:57:55;96427.22;;;14.54;100.00
596;BME280;19946;49.306;11.350;2022-08-21T05:01:00;96436.81;;;14.53;100.00
596;BME280;19946;49.306;11.350;2022-08-21T05:04:03;96430.28;;;14.49;100.00
596;BME280;19946;49.306;11.350;2022-08-21T05:07:09;96439.56;;;14.52;100.00
596;BME280;19946;49.306;11.350;2022-08-21T05:10:12;96440.91;;;14.56;100.00
596;BME280;19946;49.306;11.350;2022-08-21T05:13:13;96432.63;;;14.60;100.00
596;BME280;19946;49.306;11.350;2022-08-21T05:16:13;96433.34;;;14.71;100.00
596;BME280;19946;49.306;11.350;2022-08-21T05:19:14;96428.28;;;14.69;100.00
596;BME280;19946;49.306;11.350;2022-08-21T05:22:22;96438.88;;;14.68;100.00
596;BME280;19946;49.306;11.350;2022-08-21T05:25:24;96443.44;;;14.74;100.00
596;BME280;19946;49.306;11.350;2022-08-21T05:28:25;96444.28;;;14.82;100.00
596;BME280;19946;49.306;11.350;2022-08-21T05:31:26;96447.25;;;14.87;100.00
596;BME280;19946;49.306;11.350;2022-08-21T05:34:26;96451.38;;;14.98;100.00
596;BME280;19946;49.306;11.350;2022-08-21T05:37:27;96456.19;;;14.85;100.00
596;BME280;19946;49.306;11.350;2022-08-21T05:40:27;96457.38;;;14.90;100.00
596;BME280;19946;49.306;11.350;2022-08-21T05:43:28;96458.53;;;14.96;100.00
596;BME280;19946;49.306;11.350;2022-08-21T05:46:28;96439.47;;;14.61;100.00
596;BME280;19946;49.306;11.350;2022-08-21T05:49:28;96460.41;;;14.78;100.00
596;BME280;19946;49.306;11.350;2022-08-21T05:52:28;96465.78;;;14.76;100.00
596;BME280;19946;49.306;11.350;2022-08-21T05:55:29;96462.38;;;14.84;100.00
596;BME280;19946;49.306;11.350;2022-08-21T05:58:30;96466.41;;;14.70;100.00
596;BME280;19946;49.306;11.350;2022-08-21T06:01:32;96455.22;;;14.86;100.00
596;BME280;19946;49.306;11.350;2022-08-21T06:04:35;96458.59;;;14.70;100.00
596;BME280;19946;49.306;11.350;2022-08-21T06:07:36;96452.47;;;14.53;100.00
596;BME280;19946;49.306;11.350;2022-08-21T06:10:37;96460.00;;;14.90;100.00
596;BME280;19946;49.306;11.350;2022-08-21T06:13:37;96463.91;;;14.94;100.00
596;BME280;19946;49.306;11.350;2022-08-21T06:16:38;96470.75;;;14.95;100.00
596;BME280;19946;49.306;11.350;2022-08-21T06:19:39;96477.09;;;14.93;100.00
596;BME280;19946;49.306;11.350;2022-08-21T06:22:39;96479.16;;;15.15;100.00
596;BME280;19946;49.306;11.350;2022-08-21T06:25:40;96474.41;;;15.11;100.00
596;BME280;19946;49.306;11.350;2022-08-21T06:28:41;96473.94;;;15.15;100.00
596;BME280;19946;49.306;11.350;2022-08-21T06:31:42;96463.38;;;15.25;100.00
596;BME280;19946;49.306;11.350;2022-08-21T06:34:42;96471.59;;;15.04;100.00
596;BME280;19946;49.306;11.350;2022-08-21T06:37:43;96463.56;;;15.31;100.00
596;BME280;19946;49.306;11.350;2022-08-21T06:40:43;96466.34;;;15.38;100.00
596;BME280;19946;49.306;11.350;2022-08-21T06:43:43;96457.78;;;15.62;100.00
596;BME280;19946;49.306;11.350;2022-08-21T06:46:44;96461.38;;;15.69;100.00
596;BME280;19946;49.306;11.350;2022-08-21T06:49:44;96457.75;;;15.54;100.00
596;BME280;19946;49.306;11.350;2022-08-21T06:52:45;96459.59;;;15.19;100.00
596;BME280;19946;49.306;11.350;2022-08-21T06:55:46;96460.81;;;15.49;100.00
596;BME280;19946;49.306;11.350;2022-08-21T06:58:47;96457.81;;;15.78;100.00
596;BME280;19946;49.306;11.350;2022-08-21T07:01:47;96458.59;;;15.54;100.00
596;BME280;19946;49.306;11.350;2022-08-21T07:04:48;96461.56;;;15.84;100.00
596;BME280;19946;49.306;11.350;2022-08-21T07:07:48;96470.72;;;15.88;100.00
596;BME280;19946;49.306;11.350;2022-08-21T07:10:48;96474.78;;;15.90;100.00
596;BME280;19946;49.306;11.350;2022-08-21T07:13:49;96469.19;;;15.61;100.00
596;BME280;19946;49.306;11.350;2022-08-21T07:16:52;96473.19;;;15.89;100.00
596;BME280;19946;49.306;11.350;2022-08-21T07:19:52;96480.66;;;15.92;100.00
596;BME280;19946;49.306;11.350;2022-08-21T07:22:52;96474.13;;;15.80;100.00
596;BME280;19946;49.306;11.350;2022-08-21T07:25:53;96465.50;;;16.04;100.00
596;BME280;19946;49.306;11.350;2022-08-21T07:28:55;96473.19;;;15.97;100.00
596;BME280;19946;49.306;11.350;2022-08-21T07:31:55;96471.19;;;15.91;100.00
596;BME280;19946;49.306;11.350;2022-08-21T07:34:56;96473.84;;;15.99;100.00
596;BME280;19946;49.306;11.350;2022-08-21T07:37:56;96475.47;;;16.09;100.00
596;BME280;19946;49.306;11.350;2022-08-21T07:40:57;96479.22;;;16.30;100.00
596;BME280;19946;49.306;11.350;2022-08-21T07:43:59;96479.38;;;16.21;100.00
596;BME280;19946;49.306;11.350;2022-08-21T07:47:00;96480.19;;;16.13;100.00
596;BME280;19946;49.306;11.350;2022-08-21T07:50:01;96479.22;;;16.14;100.00
596;BME280;19946;49.306;11.350;2022-08-21T07:53:02;96486.56;;;16.27;100.00
596;BME280;19946;49.306;11.350;2022-08-21T07:56:05;96474.94;;;16.37;100.00
596;BME280;19946;49.306;11.350;2022-08-21T07:59:05;96481.84;;;16.22;100.00
596;BME280;19946;49.306;11.350;2022-08-21T08:02:06;96467.94;;;16.14;100.00
596;BME280;19946;49.306;11.350;2022-08-21T08:05:09;96479.38;;;16.04;100.00
596;BME280;19946;49.306;11.350;2022-08-21T08:08:11;96469.59;;;16.06;100.00
596;BME280;19946;49.306;11.350;2022-08-21T08:11:12;96469.59;;;15.98;100.00
596;BME280;19946;49.306;11.350;2022-08-21T08:14:16;96469.56;;;16.23;100.00
596;BME280;19946;49.306;11.350;2022-08-21T08:17:17;96471.06;;;16.09;100.00
596;BME280;19946;49.306;11.350;2022-08-21T08:20:23;96469.91;;;16.12;100.00
596;BME280;19946;49.306;11.350;2022-08-21T08:23:25;96472.50;;;16.12;100.00
596;BME280;19946;49.306;11.350;2022-08-21T08:26:26;96465.31;;;16.46;100.00
596;BME280;19946;49.306;11.350;2022-08-21T08:29:26;96475.09;;;16.52;100.00
596;BME280;19946;49.306;11.350;2022-08-21T08:32:27;96473.00;;;16.64;100.00
596;BME280;19946;49.306;11.350;2022-08-21T08:35:27;96464.50;;;16.62;100.00
596;BME280;19946;49.306;11.350;2022-08-21T08:38:28;96470.84;;;16.67;100.00
596;BME280;19946;49.306;11.350;2022-08-21T08:41:29;96467.19;;;16.93;100.00
596;BME280;19946;49.306;11.350;2022-08-21T08:44:30;96462.66;;;17.26;100.00
596;BME280;19946;49.306;11.350;2022-08-21T08:47:35;96461.22;;;17.15;100.00
596;BME280;19946;49.306;11.350;2022-08-21T08:50:49;96452.72;;;17.52;100.00
596;BME280;19946;49.306;11.350;2022-08-21T08:53:56;96463.56;;;17.41;100.00
596;BME280;19946;49.306;11.350;2022-08-21T08:57:00;96461.13;;;17.39;100.00
596;BME280;19946;49.306;11.350;2022-08-21T09:00:07;96466.19;;;17.95;100.00
596;BME280;19946;49.306;11.350;2022-08-21T09:03:09;96471.44;;;17.95;100.00
596;BME280;19946;49.306;11.350;2022-08-21T09:06:22;96467.59;;;17.82;100.00
596;BME280;19946;49.306;11.350;2022-08-21T09:09:37;96475.56;;;17.89;100.00
596;BME280;19946;49.306;11.350;2022-08-21T09:16:21;96467.84;;;17.65;100.00
596;BME280;19946;49.306;11.350;2022-08-21T09:29:54;96459.88;;;18.93;100.00
596;BME280;19946;49.306;11.350;2022-08-21T09:32:55;96453.81;;;19.08;100.00
596;BME280;19946;49.306;11.350;2022-08-21T09:35:56;96461.06;;;18.91;100.00
596;BME280;19946;49.306;11.350;2022-08-21T09:38:59;96446.13;;;19.06;100.00
596;BME280;19946;49.306;11.350;2022-08-21T09:42:03;96452.81;;;19.09;100.00
596;BME280;19946;49.306;11.350;2022-08-21T09:45:16;96456.63;;;18.24;100.00
596;BME280;19946;49.306;11.350;2022-08-21T09:48:22;96458.16;;;18.86;100.00
596;BME280;19946;49.306;11.350;2022-08-21T09:51:26;96454.44;;;19.10;100.00
596;BME280;19946;49.306;11.350;2022-08-21T09:54:37;96448.25;;;19.47;100.00
596;BME280;19946;49.306;11.350;2022-08-21T09:57:38;96432.28;;;20.33;100.00
596;BME280;19946;49.306;11.350;2022-08-21T10:00:39;96428.63;;;21.25;100.00
596;BME280;19946;49.306;11.350;2022-08-21T10:03:39;96442.47;;;20.36;100.00
596;BME280;19946;49.306;11.350;2022-08-21T10:06:40;96435.88;;;20.75;100.00
596;BME280;19946;49.306;11.350;2022-08-21T10:09:41;96430.91;;;20.93;100.00
596;BME280;19946;49.306;11.350;2022-08-21T10:22:38;96424.78;;;20.52;100.00
596;BME280;19946;49.306;11.350;2022-08-21T10:25:52;96424.06;;;20.64;100.00
596;BME280;19946;49.306;11.350;2022-08-21T10:29:08;96428.97;;;20.74;100.00
596;BME280;19946;49.306;11.350;2022-08-21T10:32:20;96431.16;;;21.05;100.00
596;BME280;19946;49.306;11.350;2022-08-21T10:35:30;96432.22;;;20.76;100.00
596;BME280;19946;49.306;11.350;2022-08-21T10:39:10;96434.16;;;20.95;100.00
596;BME280;19946;49.306;11.350;2022-08-21T10:46:08;96425.28;;;21.03;100.00
596;BME280;19946;49.306;11.350;2022-08-21T10:52:54;96417.91;;;20.85;100.00
596;BME280;19946;49.306;11.350;2022-08-21T10:59:20;96410.59;;;22.02;100.00
596;BME280;19946;49.306;11.350;2022-08-21T11:02:29;96420.16;;;22.03;100.00
596;BME280;19946;49.306;11.350;2022-08-21T11:05:39;96413.47;;;21.27;100.00
596;BME280;19946;49.306;11.350;2022-08-21T11:08:44;96413.88;;;20.55;100.00
596;BME280;19946;49.306;11.350;2022-08-21T11:11:51;96419.28;;;20.47;100.00
596;BME280;19946;49.306;11.350;2022-08-21T11:21:52;96410.34;;;22.63;100.00
596;BME280;19946;49.306;11.350;2022-08-21T11:25:00;96416.47;;;22.77;100.00
596;BME280;19946;49.306;11.350;2022-08-21T11:31:27;96406.31;;;20.80;100.00
596;BME280;19946;49.306;11.350;2022-08-21T11:34:38;96404.97;;;20.56;100.00
596;BME280;19946;49.306;11.350;2022-08-21T11:45:25;96394.38;;;22.25;100.00
596;BME280;19946;49.306;11.350;2022-08-21T12:01:29;96335.34;;;21.93;100.00
596;BME280;19946;49.306;11.350;2022-08-21T12:04:35;96373.28;;;23.09;100.00
596;BME280;19946;49.306;11.350;2022-08-21T12:07:44;96303.91;;;22.89;100.00
596;BME280;19946;49.306;11.350;2022-08-21T12:20:42;96358.16;;;22.85;100.00
596;BME280;19946;49.306;11.350;2022-08-21T12:28:06;96357.78;;;22.62;100.00
596;BME280;19946;49.306;11.350;2022-08-21T12:30:52;96359.19;;;22.71;100.00
596;BME280;19946;49.306;11.350;2022-08-21T12:33:59;96360.66;;;22.53;100.00
596;BME280;19946;49.306;11.350;2022-08-21T12:37:14;96355.75;;;22.77;100.00
596;BME280;19946;49.306;11.350;2022-08-21T12:40:31;96323.91;;;22.58;100.00
596;BME280;19946;49.306;11.350;2022-08-21T12:43:37;96304.56;;;22.71;100.00
596;BME280;19946;49.306;11.350;2022-08-21T12:46:56;96343.47;;;21.98;100.00
596;BME280;19946;49.306;11.350;2022-08-21T12:50:11;96351.34;;;21.52;100.00
596;BME280;19946;49.306;11.350;2022-08-21T12:53:30;96330.06;;;20.99;100.00
596;BME280;19946;49.306;11.350;2022-08-21T12:56:33;96341.03;;;22.10;100.00
596;BME280;19946;49.306;11.350;2022-08-21T12:59:38;96318.91;;;22.95;100.00
596;BME280;19946;49.306;11.350;2022-08-21T13:02:47;96321.19;;;22.91;100.00
596;BME280;19946;49.306;11.350;2022-08-21T13:05:48;96290.06;;;22.93;100.00
596;BME280;19946;49.306;11.350;2022-08-21T13:08:57;96306.63;;;22.69;100.00
596;BME280;19946;49.306;11.350;2022-08-21T13:11:59;96320.88;;;23.44;100.00
596;BME280;19946;49.306;11.350;2022-08-21T13:15:04;96325.97;;;23.08;100.00
596;BME280;19946;49.306;11.350;2022-08-21T13:18:06;96318.59;;;23.16;100.00
596;BME280;19946;49.306;11.350;2022-08-21T13:21:12;96328.84;;;23.69;100.00
596;BME280;19946;49.306;11.350;2022-08-21T13:24:25;96338.06;;;23.60;98.75
596;BME280;19946;49.306;11.350;2022-08-21T13:27:28;96330.75;;;23.62;98.09
596;BME280;19946;49.306;11.350;2022-08-21T13:30:30;96314.50;;;23.58;96.46
596;BME280;19946;49.306;11.350;2022-08-21T13:33:30;96317.00;;;23.53;88.22
596;BME280;19946;49.306;11.350;2022-08-21T13:36:34;96290.78;;;23.14;90.37
596;BME280;19946;49.306;11.350;2022-08-21T13:39:35;96317.72;;;22.84;94.60
596;BME280;19946;49.306;11.350;2022-08-21T13:42:39;96320.06;;;22.48;98.51
596;BME280;19946;49.306;11.350;2022-08-21T13:45:43;96311.47;;;22.66;100.00
596;BME280;19946;49.306;11.350;2022-08-21T13:48:44;96315.44;;;22.94;97.56
596;BME280;19946;49.306;11.350;2022-08-21T13:51:45;96311.34;;;23.05;89.00
596;BME280;19946;49.306;11.350;2022-08-21T13:54:54;96311.75;;;23.40;89.80
596;BME280;19946;49.306;11.350;2022-08-21T13:58:02;96314.94;;;24.30;90.93
596;BME280;19946;49.306;11.350;2022-08-21T14:01:03;96315.69;;;23.62;91.63
596;BME280;19946;49.306;11.350;2022-08-21T14:04:15;96321.47;;;23.53;90.21
596;BME280;19946;49.306;11.350;2022-08-21T14:07:19;96314.56;;;24.01;89.05
596;BME280;19946;49.306;11.350;2022-08-21T14:10:22;96314.13;;;24.05;88.65
596;BME280;19946;49.306;11.350;2022-08-21T14:19:58;96322.34;;;22.31;99.64
596;BME280;19946;49.306;11.350;2022-08-21T14:23:00;96312.75;;;23.14;98.32
596;BME280;19946;49.306;11.350;2022-08-21T14:26:04;96293.94;;;22.27;98.25
596;BME280;19946;49.306;11.350;2022-08-21T14:29:08;96293.53;;;21.97;100.00
596;BME280;19946;49.306;11.350;2022-08-21T14:32:22;96307.75;;;22.93;94.14
596;BME280;19946;49.306;11.350;2022-08-21T14:35:25;96304.22;;;23.75;90.40
596;BME280;19946;49.306;11.350;2022-08-21T14:38:26;96299.34;;;23.97;87.44
596;BME280;19946;49.306;11.350;2022-08-21T14:41:28;96275.50;;;23.47;86.48
596;BME280;19946;49.306;11.350;2022-08-21T14:44:29;96294.44;;;23.51;90.79
596;BME280;19946;49.306;11.350;2022-08-21T14:47:29;96297.00;;;23.89;87.36
596;BME280;19946;49.306;11.350;2022-08-21T14:50:30;96288.97;;;23.46;85.63
596;BME280;19946;49.306;11.350;2022-08-21T14:53:30;96299.31;;;22.65;85.71
596;BME280;19946;49.306;11.350;2022-08-21T14:56:31;96304.13;;;22.03;86.70
596;BME280;19946;49.306;11.350;2022-08-21T14:59:32;96303.44;;;22.47;91.68
596;BME280;19946;49.306;11.350;2022-08-21T15:02:33;96284.78;;;22.93;86.17
596;BME280;19946;49.306;11.350;2022-08-21T15:05:33;96297.16;;;23.00;83.92
596;BME280;19946;49.306;11.350;2022-08-21T15:08:34;96293.00;;;22.66;91.33
596;BME280;19946;49.306;11.350;2022-08-21T15:11:34;96273.19;;;22.43;88.46
596;BME280;19946;49.306;11.350;2022-08-21T15:14:39;96279.13;;;22.26;90.10
596;BME280;19946;49.306;11.350;2022-08-21T15:17:40;96279.13;;;22.19;91.11
596;BME280;19946;49.306;11.350;2022-08-21T15:20:40;96265.91;;;22.32;89.99
596;BME280;19946;49.306;11.350;2022-08-21T15:23:43;96272.19;;;22.44;89.58
596;BME280;19946;49.306;11.350;2022-08-21T15:26:46;96273.31;;;22.68;88.40
596;BME280;19946;49.306;11.350;2022-08-21T15:29:46;96275.53;;;22.71;87.46
596;BME280;19946;49.306;11.350;2022-08-21T15:32:46;96245.81;;;22.38;87.50
596;BME280;19946;49.306;11.350;2022-08-21T15:35:47;96265.25;;;22.56;85.16
596;BME280;19946;49.306;11.350;2022-08-21T15:38:47;96230.81;;;22.32;85.27
596;BME280;19946;49.306;11.350;2022-08-21T15:41:49;96262.34;;;22.65;84.67
596;BME280;19946;49.306;11.350;2022-08-21T15:44:49;96251.59;;;22.66;83.26
596;BME280;19946;49.306;11.350;2022-08-21T15:47:50;96266.41;;;22.67;81.94
596;BME280;19946;49.306;11.350;2022-08-21T15:50:51;96258.09;;;22.64;79.49
596;BME280;19946;49.306;11.350;2022-08-21T15:53:51;96252.59;;;22.78;77.78
596;BME280;19946;49.306;11.350;2022-08-21T15:56:51;96234.75;;;22.67;79.56
596;BME280;19946;49.306;11.350;2022-08-21T16:00:11;96236.97;;;22.64;75.68
596;BME280;19946;49.306;11.350;2022-08-21T16:03:15;96223.63;;;22.58;76.90
596;BME280;19946;49.306;11.350;2022-08-21T16:06:16;96233.59;;;22.50;78.21
596;BME280;19946;49.306;11.350;2022-08-21T16:09:17;96245.28;;;22.67;77.26
596;BME280;19946;49.306;11.350;2022-08-21T16:12:23;96226.72;;;22.42;75.67
596;BME280;19946;49.306;11.350;2022-08-21T16:15:25;96233.22;;;22.46;77.91
596;BME280;19946;49.306;11.350;2022-08-21T16:18:26;96245.16;;;22.55;71.27
596;BME280;19946;49.306;11.350;2022-08-21T16:21:27;96232.19;;;22.41;71.09
596;BME280;19946;49.306;11.350;2022-08-21T16:24:27;96236.63;;;22.53;71.66
596;BME280;19946;49.306;11.350;2022-08-21T16:27:27;96229.97;;;22.44;71.58
596;BME280;19946;49.306;11.350;2022-08-21T16:30:29;96239.06;;;22.55;70.94
596;BME280;19946;49.306;11.350;2022-08-21T16:33:33;96221.06;;;22.32;68.98
596;BME280;19946;49.306;11.350;2022-08-21T16:36:33;96238.72;;;22.38;68.88
596;BME280;19946;49.306;11.350;2022-08-21T16:39:34;96218.06;;;22.22;68.90
596;BME280;19946;49.306;11.350;2022-08-21T16:42:35;96207.34;;;22.17;68.56
596;BME280;19946;49.306;11.350;2022-08-21T16:45:37;96220.31;;;22.25;69.95
596;BME280;19946;49.306;11.350;2022-08-21T16:48:39;96234.91;;;22.21;67.46
596;BME280;19946;49.306;11.350;2022-08-21T16:51:40;96233.50;;;22.25;69.22
596;BME280;19946;49.306;11.350;2022-08-21T16:54:42;96204.91;;;21.96;70.50
596;BME280;19946;49.306;11.350;2022-08-21T16:57:42;96206.38;;;21.98;69.58
596;BME280;19946;49.306;11.350;2022-08-21T17:00:43;96211.44;;;21.93;69.06
596;BME280;19946;49.306;11.350;2022-08-21T17:03:46;96193.84;;;21.74;68.36
596;BME280;19946;49.306;11.350;2022-08-21T17:06:47;96242.44;;;21.98;70.47
596;BME280;19946;49.306;11.350;2022-08-21T17:09:48;96226.44;;;21.99;72.22
596;BME280;19946;49.306;11.350;2022-08-21T17:12:54;96218.53;;;21.86;73.93
596;BME280;19946;49.306;11.350;2022-08-21T17:15:55;96232.13;;;21.90;73.50
596;BME280;19946;49.306;11.350;2022-08-21T17:18:56;96217.53;;;21.80;74.76
596;BME280;19946;49.306;11.350;2022-08-21T17:21:56;96208.66;;;21.62;76.48
596;BME280;19946;49.306;11.350;2022-08-21T17:24:57;96203.78;;;21.52;74.20
596;BME280;19946;49.306;11.350;2022-08-21T18:02:27;96237.16;;;19.05;100.00
596;BME280;19946;49.306;11.350;2022-08-21T18:05:30;96231.31;;;18.82;100.00
596;BME280;19946;49.306;11.350;2022-08-21T18:08:30;96246.41;;;18.80;100.00
596;BME280;19946;49.306;11.350;2022-08-21T18:11:32;96244.44;;;18.52;100.00